Time,TemperatureF,DewpointF,PressureIn,WindDirection,WindDirectionDegrees,WindSpeedMPH,WindSpeedGustMPH,Humidity,HourlyPrecipIn,Conditions,Clouds,dailyrainin,SoftwareType,DateUTC
2013-01-12 10:02:00,42.4,41.9,30.17,East,99,0.0,0.0,98,0.00,,,0.00,Wunderground v.1.15,2013-01-12 15:02:00,
2013-01-12 10:04:00,42.4,41.9,30.17,East,99,0.0,0.0,98,0.00,,,0.00,Wunderground v.1.15,2013-01-12 15:04:00,
2013-01-12 10:06:00,42.4,41.9,30.17,East,99,0.0,0.0,98,0.00,,,0.00,Wunderground v.1.15,2013-01-12 15:06:00,
2013-01-12 10:12:00,42.4,41.9,30.18,East,99,0.0,0.0,98,0.00,,,0.00,Wunderground v.1.15,2013-01-12 15:12:00,
2013-01-12 10:18:00,42.7,42.4,30.17,East,99,0.0,0.0,99,0.00,,,0.00,Wunderground v.1.15,2013-01-12 15:18:00,
2013-01-12 10:24:00,42.8,42.5,30.17,East,99,0.0,0.0,99,0.00,,,0.00,Wunderground v.1.15,2013-01-12 15:24:00,
2013-01-12 10:30:00,43.2,42.9,30.17,East,99,0.0,0.0,99,0.00,,,0.00,Wunderground v.1.15,2013-01-12 15:30:00,
2013-01-12 10:36:00,43.3,43.0,30.17,East,99,0.0,0.0,99,0.00,,,0.00,Wunderground v.1.15,2013-01-12 15:36:00,
2013-01-12 10:42:00,43.2,42.9,30.18,East,99,0.0,0.0,99,0.00,,,0.00,Wunderground v.1.15,2013-01-12 15:42:00,
2013-01-12 10:48:00,43.1,42.8,30.18,East,99,0.0,0.0,99,0.00,,,0.00,Wunderground v.1.15,2013-01-12 15:48:00,
2013-01-12 10:54:00,43.4,42.9,30.17,East,99,0.0,0.0,98,0.00,,,0.00,Wunderground v.1.15,2013-01-12 15:54:00,
2013-01-12 11:00:00,44.1,43.8,30.17,East,99,0.0,0.0,99,0.00,,,0.00,Wunderground v.1.15,2013-01-12 16:00:00,
2013-01-12 11:06:00,44.6,44.3,30.17,East,99,0.0,0.0,99,0.00,,,0.00,Wunderground v.1.15,2013-01-12 16:06:00,
2013-01-12 11:12:00,45.0,44.7,30.16,East,99,0.0,0.0,99,0.00,,,0.00,Wunderground v.1.15,2013-01-12 16:12:00,
2013-01-12 11:18:00,44.5,44.2,30.16,East,99,0.0,0.0,99,0.00,,,0.00,Wunderground v.1.15,2013-01-12 16:18:00,
2013-01-12 11:24:00,45.0,44.7,30.16,East,99,0.0,0.0,99,0.00,,,0.00,Wunderground v.1.15,2013-01-12 16:24:00,
2013-01-12 11:30:00,45.8,45.5,30.16,East,100,0.0,2.0,99,0.00,,,0.00,Wunderground v.1.15,2013-01-12 16:30:00,
2013-01-12 19:06:00,44.0,42.9,30.13,South,175,0.0,0.0,96,0.00,,,0.01,Wunderground v.1.15,2013-01-13 00:06:00,
2013-01-12 19:12:00,44.1,43.0,30.13,South,175,0.0,0.0,96,0.00,,,0.01,Wunderground v.1.15,2013-01-13 00:12:00,
2013-01-12 19:18:00,44.2,43.1,30.13,South,175,0.0,1.0,96,0.00,,,0.01,Wunderground v.1.15,2013-01-13 00:18:00,
2013-01-12 19:24:00,44.3,43.2,30.13,South,175,0.0,0.0,96,0.00,,,0.01,Wunderground v.1.15,2013-01-13 00:24:00,
2013-01-12 19:30:00,44.4,43.3,30.14,South,175,0.0,0.0,96,0.00,,,0.01,Wunderground v.1.15,2013-01-13 00:30:00,
2013-01-12 19:36:00,44.4,43.3,30.14,South,175,0.0,0.0,96,0.00,,,0.01,Wunderground v.1.15,2013-01-13 00:36:00,
2013-01-12 19:42:00,44.5,43.4,30.13,South,175,0.0,0.0,96,0.00,,,0.01,Wunderground v.1.15,2013-01-13 00:42:00,
2013-01-12 19:48:00,44.5,43.4,30.13,South,175,0.0,0.0,96,0.00,,,0.01,Wunderground v.1.15,2013-01-13 00:48:00,
2013-01-12 19:54:00,44.3,43.2,30.13,South,175,0.0,0.0,96,0.00,,,0.01,Wunderground v.1.15,2013-01-13 00:54:00,
2013-01-12 20:00:00,44.2,43.1,30.13,South,175,0.0,0.0,96,0.00,,,0.01,Wunderground v.1.15,2013-01-13 01:00:00,
2013-01-12 20:06:00,44.1,43.3,30.13,South,175,0.0,0.0,97,0.00,,,0.01,Wunderground v.1.15,2013-01-13 01:06:00,